Time;durP1;ratioP1;P1;durP2;ratioP2;P2;SDS_P1;SDS_P2;PMS_P1;PMS_P2;Temp;Humidity;BMP_temperature;BMP_pressure;BME280_temperature;BME280_humidity;BME280_pressure;Samples;Min_cycle;Max_cycle;Signal;HPM_P1;HPM_P2
2021/08/04 00:00:07;;;;;;;7.65;4.07;;;20.60;82.90;;;;;;4248539;27;20132;-72
2021/08/04 00:02:10;;;;;;;8.68;4.05;;;20.60;83.20;;;;;;4248278;27;20082;-72
2021/08/04 00:04:13;;;;;;;6.90;3.80;;;20.60;83.20;;;;;;4248635;27;20112;-73
2021/08/04 00:06:18;;;;;;;5.85;4.00;;;20.60;83.10;;;;;;4248283;27;20070;-73
2021/08/04 00:08:21;;;;;;;6.80;3.83;;;20.50;83.20;;;;;;4248274;27;20074;-72
2021/08/04 00:10:24;;;;;;;5.00;3.97;;;20.50;83.10;;;;;;4248507;27;20466;-73
2021/08/04 00:12:27;;;;;;;7.90;3.30;;;20.50;83.10;;;;;;4248433;27;20096;-73
2021/08/04 00:14:30;;;;;;;5.55;3.30;;;20.50;83.40;;;;;;4247893;27;20547;-72
2021/08/04 00:16:34;;;;;;;8.00;3.50;;;20.50;83.50;;;;;;4247988;27;20507;-73
2021/08/04 00:18:37;;;;;;;5.13;3.75;;;20.40;83.50;;;;;;4248121;27;20075;-73
2021/08/04 00:20:40;;;;;;;5.68;3.55;;;20.40;83.70;;;;;;4248089;27;20055;-72
2021/08/04 00:22:44;;;;;;;7.03;4.20;;;20.40;84.60;;;;;;4248312;27;20079;-72
2021/08/04 00:24:48;;;;;;;7.65;4.03;;;20.30;83.90;;;;;;4248046;27;20514;-72
2021/08/04 00:26:51;;;;;;;7.30;3.67;;;20.30;84.30;;;;;;4247850;27;20079;-72
2021/08/04 00:28:54;;;;;;;5.25;3.90;;;20.30;84.20;;;;;;4247926;27;20465;-73
2021/08/04 00:30:57;;;;;;;5.47;3.38;;;20.30;84.00;;;;;;4248225;27;20051;-73
2021/08/04 00:33:00;;;;;;;5.70;3.78;;;20.20;84.20;;;;;;4247966;27;20059;-73
2021/08/04 00:35:03;;;;;;;6.57;3.78;;;20.20;84.50;;;;;;4248043;27;20570;-73
2021/08/04 00:37:06;;;;;;;6.20;3.42;;;20.20;84.40;;;;;;4248161;27;20055;-73
2021/08/04 00:39:11;;;;;;;7.07;3.88;;;20.30;84.70;;;;;;4248011;27;20495;-73
2021/08/04 00:41:14;;;;;;;7.80;4.05;;;20.30;84.60;;;;;;4247504;27;20133;-73
2021/08/04 00:43:17;;;;;;;4.88;3.70;;;20.20;84.50;;;;;;4247792;27;20108;-73
2021/08/04 00:45:20;;;;;;;6.85;4.38;;;20.20;84.70;;;;;;4247762;27;20155;-73
2021/08/04 00:47:23;;;;;;;6.65;3.95;;;20.20;85.40;;;;;;4229663;27;20083;-71
2021/08/04 00:49:26;;;;;;;7.50;3.90;;;20.20;84.40;;;;;;4247524;27;20047;-71
2021/08/04 00:51:29;;;;;;;7.68;4.00;;;20.20;84.40;;;;;;4247621;27;20075;-71
2021/08/04 00:53:32;;;;;;;4.80;3.78;;;20.20;84.70;;;;;;4247952;27;20626;-71
2021/08/04 00:55:37;;;;;;;5.82;4.03;;;20.20;84.70;;;;;;4247515;27;20528;-71
2021/08/04 00:57:40;;;;;;;4.72;3.92;;;20.10;84.50;;;;;;4247605;27;20071;-73
2021/08/04 00:59:43;;;;;;;5.82;3.85;;;20.10;84.70;;;;;;4247543;27;20074;-73
2021/08/04 01:01:49;;;;;;;4.60;3.85;;;20.10;84.90;;;;;;4247556;27;20074;-71
2021/08/04 01:03:55;;;;;;;8.07;4.32;;;20.10;84.70;;;;;;4247094;27;20147;-73
2021/08/04 01:06:03;;;;;;;6.35;3.97;;;20.10;85.00;;;;;;4229174;28;20059;-73
2021/08/04 01:08:08;;;;;;;8.48;4.65;;;20.10;84.90;;;;;;4229483;28;20451;-73
2021/08/04 01:10:15;;;;;;;6.72;4.40;;;20.10;85.00;;;;;;4247276;27;20058;-73
2021/08/04 01:12:24;;;;;;;7.03;3.97;;;20.10;85.20;;;;;;4247414;27;20075;-70
2021/08/04 01:14:32;;;;;;;6.70;4.30;;;20.10;85.10;;;;;;4246980;27;20075;-73
2021/08/04 01:16:39;;;;;;;9.43;4.82;;;20.00;85.10;;;;;;4247399;27;20106;-71
2021/08/04 01:18:46;;;;;;;7.80;4.78;;;20.10;85.30;;;;;;4247268;27;20459;-73
2021/08/04 01:20:50;;;;;;;6.60;4.45;;;20.00;85.50;;;;;;4247041;27;20511;-71
2021/08/04 01:23:03;;;;;;;5.63;3.95;;;20.00;85.30;;;;;;4247173;27;20495;-73
2021/08/04 01:25:13;;;;;;;8.43;4.57;;;20.10;85.60;;;;;;4247169;27;20209;-70
2021/08/04 01:27:18;;;;;;;7.30;4.88;;;20.00;85.70;;;;;;4247279;27;20079;-73
2021/08/04 01:29:24;;;;;;;11.90;5.15;;;20.00;86.10;;;;;;4247116;27;20446;-72
2021/08/04 01:31:31;;;;;;;6.82;4.57;;;20.00;85.90;;;;;;4247152;27;20079;-72
2021/08/04 01:33:39;;;;;;;5.82;4.57;;;20.00;86.80;;;;;;4247260;27;20071;-73
2021/08/04 01:35:43;;;;;;;8.05;4.88;;;20.00;86.60;;;;;;4246874;27;20112;-72
2021/08/04 01:37:47;;;;;;;9.33;4.53;;;20.00;86.30;;;;;;4246833;27;20131;-72
2021/08/04 01:39:51;;;;;;;9.68;5.18;;;20.00;86.60;;;;;;4247165;27;20482;-72
2021/08/04 01:41:56;;;;;;;5.68;4.68;;;20.10;86.80;;;;;;4246931;27;20070;-72
2021/08/04 01:44:01;;;;;;;8.82;4.97;;;20.00;86.70;;;;;;4246689;27;20086;-73
2021/08/04 01:46:06;;;;;;;6.20;4.97;;;20.00;87.00;;;;;;4246785;27;20143;-73
2021/08/04 01:48:10;;;;;;;7.88;4.60;;;20.00;86.90;;;;;;4246941;27;20073;-73
2021/08/04 01:50:14;;;;;;;7.72;4.97;;;20.00;86.90;;;;;;4246935;27;20104;-73
2021/08/04 01:52:17;;;;;;;5.50;4.53;;;20.00;86.60;;;;;;4246068;27;20592;-73
2021/08/04 01:54:21;;;;;;;11.10;4.53;;;20.00;86.50;;;;;;4246532;27;20081;-73
2021/08/04 01:56:25;;;;;;;9.77;4.72;;;20.00;87.00;;;;;;4246924;27;20079;-73
2021/08/04 01:58:29;;;;;;;9.27;4.80;;;20.00;87.20;;;;;;4246588;27;20438;-72
2021/08/04 02:00:33;;;;;;;7.93;4.95;;;20.00;87.20;;;;;;4246841;27;20047;-73
2021/08/04 02:02:36;;;;;;;9.27;4.95;;;19.90;87.30;;;;;;4246874;27;20077;-73
2021/08/04 02:04:39;;;;;;;13.73;5.85;;;19.90;87.50;;;;;;4246436;27;20051;-73
2021/08/04 02:06:50;;;;;;;9.63;4.90;;;19.90;88.80;;;;;;4246551;27;20065;-72
2021/08/04 02:09:00;;;;;;;9.30;4.80;;;20.00;88.00;;;;;;4246403;27;20134;-72
2021/08/04 02:11:12;;;;;;;6.88;5.20;;;19.90;88.70;;;;;;4246379;27;20065;-73
2021/08/04 02:13:25;;;;;;;6.97;5.22;;;19.90;89.20;;;;;;4246377;27;20051;-73
2021/08/04 02:15:54;;;;;;;7.90;5.82;;;19.90;88.90;;;;;;4246566;27;20046;-73
2021/08/04 02:18:03;;;;;;;11.70;6.20;;;19.80;90.50;;;;;;4246594;27;20054;-72
2021/08/04 02:20:13;;;;;;;11.93;5.80;;;19.80;91.00;;;;;;4246410;27;20074;-72
2021/08/04 02:22:31;;;;;;;8.60;6.03;;;19.70;91.70;;;;;;4246062;27;20085;-72
2021/08/04 02:24:37;;;;;;;11.00;5.53;;;19.60;91.90;;;;;;4246015;27;20059;-72
2021/08/04 02:26:42;;;;;;;11.52;5.78;;;19.60;91.50;;;;;;4228006;28;20117;-70
2021/08/04 02:28:50;;;;;;;12.57;6.20;;;19.60;91.30;;;;;;4246108;27;20051;-72
2021/08/04 02:30:55;;;;;;;11.02;6.50;;;19.60;92.00;;;;;;4246021;27;20147;-72
2021/08/04 02:32:59;;;;;;;;;;;19.60;92.00;;;;;;4246900;27;20061;-73
2021/08/04 02:35:02;;;;;;;13.13;6.22;;;19.60;92.20;;;;;;4246164;27;20010;-73
2021/08/04 02:37:05;;;;;;;11.70;6.07;;;19.50;92.30;;;;;;4245961;27;20057;-72
2021/08/04 02:39:08;;;;;;;9.50;6.18;;;19.50;92.00;;;;;;4246167;27;20532;-72
2021/08/04 02:41:13;;;;;;;10.63;6.32;;;19.50;91.70;;;;;;4245856;27;20051;-72
2021/08/04 02:43:18;;;;;;;8.30;6.45;;;19.60;91.60;;;;;;4245948;27;20410;-72
2021/08/04 02:45:22;;;;;;;10.35;5.93;;;19.60;91.30;;;;;;4245905;27;20067;-72
2021/08/04 02:47:27;;;;;;;8.32;6.18;;;19.70;91.40;;;;;;4245903;27;20376;-73
2021/08/04 02:49:30;;;;;;;8.73;6.63;;;19.70;91.30;;;;;;4227651;28;20492;-72
2021/08/04 02:51:34;;;;;;;9.55;7.03;;;19.50;91.90;;;;;;4245695;27;20051;-72
2021/08/04 02:53:38;;;;;;;9.07;6.28;;;19.50;92.30;;;;;;4245683;27;20058;-72
2021/08/04 02:55:41;;;;;;;8.90;6.07;;;19.40;92.20;;;;;;4245859;27;20055;-72
2021/08/04 02:57:44;;;;;;;12.52;6.05;;;19.50;91.70;;;;;;4245800;27;20375;-74
2021/08/04 02:59:47;;;;;;;7.60;5.88;;;19.50;91.60;;;;;;4245870;27;20065;-72
2021/08/04 03:01:50;;;;;;;8.27;6.30;;;19.60;91.40;;;;;;4246071;27;20411;-73
2021/08/04 03:03:54;;;;;;;10.55;6.55;;;19.60;91.50;;;;;;4245771;27;20138;-72
2021/08/04 03:05:57;;;;;;;8.15;6.40;;;19.60;91.30;;;;;;4227625;28;20133;-72
2021/08/04 03:08:01;;;;;;;9.90;6.53;;;19.60;91.40;;;;;;4245346;27;20047;-72
2021/08/04 03:10:04;;;;;;;9.38;6.50;;;19.50;92.20;;;;;;4245835;28;20561;-72
2021/08/04 03:12:08;;;;;;;11.15;6.78;;;19.50;91.70;;;;;;4245783;28;20067;-72
2021/08/04 03:14:11;;;;;;;8.55;6.60;;;19.40;92.00;;;;;;4245343;27;20054;-72
2021/08/04 03:16:14;;;;;;;11.32;6.88;;;19.40;92.30;;;;;;4245827;28;20070;-72
2021/08/04 03:18:17;;;;;;;11.07;6.72;;;19.40;91.70;;;;;;4245797;28;20059;-73
2021/08/04 03:20:22;;;;;;;11.82;6.22;;;19.30;91.80;;;;;;4245710;28;20055;-72
2021/08/04 03:22:25;;;;;;;9.65;6.75;;;19.40;91.80;;;;;;4245596;28;20055;-73
2021/08/04 03:24:28;;;;;;;10.15;6.53;;;19.40;91.60;;;;;;4245679;28;20055;-73
2021/08/04 03:26:31;;;;;;;10.93;6.03;;;19.40;91.70;;;;;;4245381;28;20068;-73
2021/08/04 03:28:34;;;;;;;10.07;5.78;;;19.40;91.30;;;;;;4245513;28;20051;-73
2021/08/04 03:30:37;;;;;;;8.23;5.88;;;19.40;91.40;;;;;;4245458;28;20058;-72
2021/08/04 03:32:40;;;;;;;8.32;6.13;;;19.40;91.40;;;;;;4245633;28;20517;-72
2021/08/04 03:34:43;;;;;;;9.85;5.82;;;19.40;91.30;;;;;;4245716;28;20513;-72
2021/08/04 03:36:49;;;;;;;11.20;5.80;;;19.40;91.40;;;;;;4245699;28;20064;-72
2021/08/04 03:38:51;;;;;;;10.20;6.70;;;19.40;91.50;;;;;;4245782;28;20057;-72
2021/08/04 03:40:55;;;;;;;9.43;6.35;;;19.40;91.60;;;;;;4245402;28;20049;-73
2021/08/04 03:42:57;;;;;;;11.57;6.40;;;19.40;91.50;;;;;;4245767;28;20047;-71
2021/08/04 03:45:00;;;;;;;9.10;5.78;;;19.30;91.60;;;;;;4245549;28;20134;-72
2021/08/04 03:47:04;;;;;;;11.05;6.00;;;19.30;91.60;;;;;;4245471;28;20053;-72
2021/08/04 03:49:07;;;;;;;9.48;6.15;;;19.30;91.40;;;;;;4245471;28;20061;-73
2021/08/04 03:51:10;;;;;;;7.90;5.72;;;19.30;91.40;;;;;;4245528;28;20532;-72
2021/08/04 03:53:14;;;;;;;8.90;5.95;;;19.30;91.40;;;;;;4245673;28;20059;-73
2021/08/04 03:55:17;;;;;;;9.05;6.25;;;19.30;91.70;;;;;;4245544;28;20051;-73
2021/08/04 03:57:20;;;;;;;6.60;5.65;;;19.20;91.60;;;;;;4245435;28;20052;-72
2021/08/04 03:59:23;;;;;;;7.00;5.63;;;19.20;91.60;;;;;;4245618;28;20047;-73
2021/08/04 04:01:26;;;;;;;10.75;6.00;;;19.20;91.70;;;;;;4245328;28;20491;-73
2021/08/04 04:03:30;;;;;;;10.10;5.88;;;19.20;91.60;;;;;;4245546;28;20057;-72
2021/08/04 04:05:33;;;;;;;8.77;5.85;;;19.20;91.50;;;;;;4245524;28;20066;-73
2021/08/04 04:07:36;;;;;;;11.30;6.40;;;19.20;91.50;;;;;;4245641;28;20043;-73
2021/08/04 04:09:40;;;;;;;8.02;6.10;;;19.20;91.70;;;;;;4245482;28;20047;-73
2021/08/04 04:11:43;;;;;;;10.85;5.93;;;19.10;91.70;;;;;;4245453;28;20051;-70
2021/08/04 04:13:46;;;;;;;10.57;5.90;;;19.10;91.70;;;;;;4245133;27;20044;-72
2021/08/04 04:15:49;;;;;;;9.00;6.20;;;19.10;91.70;;;;;;4246154;27;20059;-73
2021/08/04 04:17:52;;;;;;;12.05;5.72;;;19.10;91.90;;;;;;4248395;27;20058;-72
2021/08/04 04:19:55;;;;;;;11.25;5.65;;;19.00;91.60;;;;;;4248290;27;20487;-73
2021/08/04 04:21:58;;;;;;;9.27;5.95;;;19.10;91.70;;;;;;4248126;27;20407;-72
2021/08/04 04:24:01;;;;;;;12.35;6.32;;;19.10;91.70;;;;;;4247977;27;20054;-73
2021/08/04 04:26:06;;;;;;;10.18;5.88;;;19.00;91.80;;;;;;4248419;27;20055;-72
2021/08/04 04:28:09;;;;;;;10.32;6.47;;;19.00;92.10;;;;;;4248225;27;20073;-72
2021/08/04 04:30:12;;;;;;;15.23;6.82;;;18.90;92.60;;;;;;4248148;27;20059;-72
2021/08/04 04:32:15;;;;;;;19.75;6.22;;;18.90;92.80;;;;;;4248360;27;20063;-74
2021/08/04 04:34:19;;;;;;;14.05;7.03;;;18.90;92.70;;;;;;4248417;27;20047;-72
2021/08/04 04:36:22;;;;;;;18.00;7.25;;;19.00;92.20;;;;;;4248212;27;20088;-73
2021/08/04 04:38:25;;;;;;;24.88;7.35;;;18.90;92.60;;;;;;4229876;28;20051;-73
2021/08/04 04:40:28;;;;;;;21.02;6.95;;;18.90;92.40;;;;;;4248206;27;20571;-72
2021/08/04 04:42:32;;;;;;;20.50;7.18;;;18.90;92.20;;;;;;4247776;27;20055;-72
2021/08/04 04:44:35;;;;;;;12.85;6.80;;;18.90;92.80;;;;;;4247995;27;20617;-72
2021/08/04 04:46:42;;;;;;;8.75;5.65;;;18.90;92.40;;;;;;4247770;27;20070;-72
2021/08/04 04:48:45;;;;;;;16.63;6.95;;;19.00;92.30;;;;;;4247668;27;20062;-72
2021/08/04 04:50:48;;;;;;;14.02;6.43;;;19.00;92.20;;;;;;4247786;27;20055;-72
2021/08/04 04:52:51;;;;;;;13.35;6.15;;;19.00;92.50;;;;;;4247896;27;20047;-72
2021/08/04 04:54:54;;;;;;;13.00;6.75;;;19.00;92.20;;;;;;4247658;27;20047;-71
2021/08/04 04:56:57;;;;;;;13.68;6.60;;;19.10;92.10;;;;;;4247747;27;20055;-72
2021/08/04 04:59:01;;;;;;;16.92;6.93;;;19.10;92.00;;;;;;4247816;27;20054;-72
2021/08/04 05:01:04;;;;;;;9.80;6.07;;;19.20;91.90;;;;;;4247877;27;20051;-72
2021/08/04 05:03:08;;;;;;;9.77;6.35;;;19.20;91.90;;;;;;4247850;27;20055;-72
2021/08/04 05:05:11;;;;;;;15.05;6.82;;;19.20;92.00;;;;;;4247480;27;20051;-73
2021/08/04 05:07:14;;;;;;;15.05;6.85;;;19.30;92.00;;;;;;4247753;27;20059;-72
2021/08/04 05:09:17;;;;;;;13.45;6.70;;;19.30;92.10;;;;;;4247814;27;20070;-72
2021/08/04 05:11:20;;;;;;;11.13;6.20;;;19.30;91.90;;;;;;4247310;27;20061;-72
2021/08/04 05:13:23;;;;;;;11.43;6.25;;;19.30;91.90;;;;;;4247189;27;20384;-72
2021/08/04 05:15:28;;;;;;;11.23;6.07;;;19.30;91.80;;;;;;4247214;27;20549;-74
2021/08/04 05:17:31;;;;;;;8.43;6.30;;;19.40;91.70;;;;;;4247150;27;20055;-72
2021/08/04 05:19:34;;;;;;;11.13;5.82;;;19.40;91.70;;;;;;4247449;27;20051;-72
2021/08/04 05:21:37;;;;;;;10.15;6.28;;;19.50;91.60;;;;;;4247497;27;20055;-73
2021/08/04 05:23:40;;;;;;;12.52;6.65;;;19.40;91.70;;;;;;4247459;27;20499;-71
2021/08/04 05:25:43;;;;;;;13.85;6.05;;;19.50;91.90;;;;;;4247637;27;20051;-72
2021/08/04 05:27:46;;;;;;;11.23;6.97;;;19.50;91.70;;;;;;4246112;27;20529;-72
2021/08/04 05:29:49;;;;;;;11.35;6.38;;;19.50;91.60;;;;;;4247106;27;20445;-71
2021/08/04 05:31:54;;;;;;;8.52;6.28;;;19.60;91.90;;;;;;4247235;27;20047;-72
2021/08/04 05:33:57;;;;;;;17.85;6.70;;;19.60;91.70;;;;;;4247413;27;20055;-72
2021/08/04 05:36:00;;;;;;;13.07;6.25;;;19.60;91.80;;;;;;4247446;27;20057;-72
2021/08/04 05:38:03;;;;;;;13.38;6.80;;;19.60;91.60;;;;;;4247107;27;20513;-72
2021/08/04 05:40:07;;;;;;;10.15;6.40;;;19.60;91.50;;;;;;4247421;27;20055;-72
2021/08/04 05:42:11;;;;;;;17.55;7.22;;;19.60;91.50;;;;;;4246892;27;20058;-72
2021/08/04 05:44:14;;;;;;;22.15;7.95;;;19.50;91.70;;;;;;4246883;27;20059;-71
2021/08/04 05:46:17;;;;;;;24.80;8.63;;;19.60;91.80;;;;;;4247087;27;20532;-72
2021/08/04 05:48:22;;;;;;;33.10;8.05;;;19.50;92.40;;;;;;4247228;27;20612;-72
2021/08/04 05:50:25;;;;;;;22.10;8.23;;;19.50;92.40;;;;;;4247078;27;20051;-72
2021/08/04 05:52:28;;;;;;;26.95;8.35;;;19.30;92.80;;;;;;4246807;27;20460;-72
2021/08/04 05:54:31;;;;;;;30.35;7.80;;;19.20;93.10;;;;;;4246634;27;20047;-73
2021/08/04 05:56:34;;;;;;;29.40;8.13;;;19.20;93.50;;;;;;4246862;27;20055;-72
2021/08/04 05:58:37;;;;;;;29.60;8.50;;;19.20;93.30;;;;;;4246551;27;20055;-72
2021/08/04 06:00:40;;;;;;;28.75;8.68;;;19.20;93.30;;;;;;4246517;27;20464;-72
2021/08/04 06:02:43;;;;;;;31.52;8.52;;;19.30;93.20;;;;;;4246772;27;20058;-71
2021/08/04 06:04:49;;;;;;;17.08;7.65;;;19.30;93.10;;;;;;4246499;27;20183;-71
2021/08/04 06:06:52;;;;;;;21.80;8.80;;;19.30;93.30;;;;;;4246068;27;20461;-72
2021/08/04 06:08:56;;;;;;;19.02;8.48;;;19.40;93.30;;;;;;4246286;27;20053;-72
2021/08/04 06:10:58;;;;;;;19.73;8.15;;;19.30;93.40;;;;;;4246508;27;20055;-72
2021/08/04 06:13:02;;;;;;;22.73;8.13;;;19.40;93.10;;;;;;4246512;27;20050;-72
2021/08/04 06:15:23;;;;;;;27.35;8.52;;;19.40;93.50;;;;;;4212831;28;20066;-72
2021/08/04 06:17:26;;;;;;;21.88;8.45;;;19.40;93.60;;;;;;4212635;28;20139;-72
2021/08/04 06:19:29;;;;;;;24.77;9.18;;;19.50;93.20;;;;;;4212492;28;20512;-72
2021/08/04 06:21:34;;;;;;;21.17;8.00;;;19.40;93.50;;;;;;4212856;28;20048;-72
2021/08/04 06:23:37;;;;;;;20.63;8.35;;;19.40;93.50;;;;;;4212682;28;20526;-71
2021/08/04 06:25:40;;;;;;;17.25;8.88;;;19.40;93.50;;;;;;4212608;28;20141;-72
2021/08/04 06:27:43;;;;;;;21.98;9.05;;;19.50;93.50;;;;;;4212511;28;20063;-72
2021/08/04 06:29:46;;;;;;;18.80;9.57;;;19.40;93.50;;;;;;4212333;28;20056;-72
2021/08/04 06:31:50;;;;;;;16.27;8.77;;;19.40;93.30;;;;;;4212496;28;20576;-72
2021/08/04 06:33:53;;;;;;;21.10;8.68;;;19.60;93.00;;;;;;4212490;28;20086;-72
2021/08/04 06:35:56;;;;;;;25.55;9.30;;;19.60;92.90;;;;;;4211337;28;20098;-72
2021/08/04 06:38:00;;;;;;;19.55;9.15;;;19.70;92.80;;;;;;4212215;28;20056;-71
2021/08/04 06:40:05;;;;;;;19.63;8.63;;;19.60;92.80;;;;;;4212367;28;20071;-72
2021/08/04 06:42:08;;;;;;;23.98;8.75;;;19.50;93.10;;;;;;4212581;28;20052;-72
2021/08/04 06:44:11;;;;;;;22.77;8.93;;;19.50;93.40;;;;;;4212366;28;20055;-72
2021/08/04 06:46:14;;;;;;;27.60;9.02;;;19.50;93.20;;;;;;4212244;28;20067;-72
2021/08/04 06:48:18;;;;;;;24.13;9.37;;;19.60;93.10;;;;;;4212050;28;20059;-72
2021/08/04 06:50:21;;;;;;;37.97;10.07;;;19.50;93.00;;;;;;4211020;28;20060;-72
2021/08/04 06:52:24;;;;;;;47.03;10.52;;;19.50;93.10;;;;;;4212152;28;20056;-72
2021/08/04 06:54:28;;;;;;;34.03;9.32;;;19.60;92.80;;;;;;4212471;28;20147;-72
2021/08/04 06:56:31;;;;;;;26.10;9.55;;;19.70;92.80;;;;;;4212281;28;20465;-72
2021/08/04 06:58:35;;;;;;;21.42;9.07;;;19.70;93.00;;;;;;4212341;28;20439;-72
2021/08/04 07:00:39;;;;;;;29.60;9.55;;;19.80;92.90;;;;;;4212126;28;20055;-72
2021/08/04 07:02:42;;;;;;;;;;;19.90;92.60;;;;;;4212821;28;20060;-72
2021/08/04 07:04:46;;;;;;;18.52;8.70;;;20.00;92.20;;;;;;4211947;28;20334;-72
2021/08/04 07:06:51;;;;;;;34.90;9.90;;;20.10;91.80;;;;;;4212186;28;20488;-72
2021/08/04 07:08:54;;;;;;;21.60;8.93;;;20.10;92.00;;;;;;4211921;28;20052;-72
2021/08/04 07:10:59;;;;;;;26.98;9.55;;;20.10;91.40;;;;;;4211784;28;20135;-72
2021/08/04 07:13:02;;;;;;;22.65;10.02;;;20.20;91.70;;;;;;4211940;28;20515;-72
2021/08/04 07:15:06;;;;;;;22.15;10.13;;;20.20;91.30;;;;;;4244861;28;20646;-72
2021/08/04 07:17:09;;;;;;;22.33;9.40;;;20.30;90.90;;;;;;4245618;28;20051;-72
2021/08/04 07:19:13;;;;;;;13.48;9.20;;;20.20;91.00;;;;;;4245884;28;20055;-72
2021/08/04 07:21:16;;;;;;;23.38;9.80;;;20.40;91.20;;;;;;4245795;28;20061;-72
2021/08/04 07:23:19;;;;;;;18.88;8.48;;;20.60;91.10;;;;;;4245871;28;20043;-72
2021/08/04 07:25:22;;;;;;;17.00;8.70;;;20.80;90.70;;;;;;4245469;28;20130;-72
2021/08/04 07:27:27;;;;;;;11.13;7.68;;;20.80;90.10;;;;;;4245983;28;20061;-72
2021/08/04 07:29:32;;;;;;;12.25;8.20;;;20.90;90.00;;;;;;4245628;28;20051;-72
2021/08/04 07:31:35;;;;;;;15.48;8.32;;;21.00;89.50;;;;;;4245680;28;20568;-72
2021/08/04 07:33:40;;;;;;;16.83;8.35;;;21.10;89.50;;;;;;4246356;28;20056;-71
2021/08/04 07:35:43;;;;;;;13.18;7.40;;;21.20;87.50;;;;;;4245890;28;20100;-72
2021/08/04 07:37:46;;;;;;;14.48;8.00;;;21.10;87.60;;;;;;4245925;28;20058;-72
2021/08/04 07:39:49;;;;;;;13.35;7.35;;;21.20;88.20;;;;;;4245585;28;20138;-72
2021/08/04 07:41:52;;;;;;;11.82;6.97;;;21.20;87.50;;;;;;4245528;28;20047;-73
2021/08/04 07:43:57;;;;;;;14.25;8.07;;;21.20;87.00;;;;;;4245518;28;20134;-72
2021/08/04 07:46:00;;;;;;;;;;;21.30;87.00;;;;;;4246104;28;20059;-72
2021/08/04 07:48:04;;;;;;;13.95;6.93;;;21.50;86.80;;;;;;4245294;28;19927;-72
2021/08/04 07:50:08;;;;;;;14.68;6.68;;;21.60;86.70;;;;;;4245396;27;20055;-72
2021/08/04 07:52:11;;;;;;;12.15;6.53;;;21.60;85.00;;;;;;4248754;27;20620;-72
2021/08/04 07:54:14;;;;;;;13.05;6.00;;;21.70;84.20;;;;;;4248743;27;20054;-72
2021/08/04 07:56:22;;;;;;;13.82;5.93;;;21.80;85.50;;;;;;4248683;27;20059;-72
2021/08/04 07:58:25;;;;;;;11.40;5.97;;;21.90;84.70;;;;;;4248851;27;20487;-72
2021/08/04 08:00:30;;;;;;;10.15;6.22;;;21.90;84.70;;;;;;4248651;27;20066;-72
2021/08/04 08:02:33;;;;;;;9.80;5.07;;;22.00;82.80;;;;;;4248669;27;20054;-72
2021/08/04 08:04:36;;;;;;;6.45;3.85;;;22.00;83.10;;;;;;4248638;27;20065;-72
2021/08/04 08:06:40;;;;;;;6.78;3.65;;;22.00;79.70;;;;;;4248318;27;20426;-72
2021/08/04 08:08:43;;;;;;;8.30;3.83;;;22.00;80.80;;;;;;4248635;27;20062;-72
2021/08/04 08:10:49;;;;;;;7.88;3.70;;;22.10;81.20;;;;;;4248677;27;20122;-72
2021/08/04 08:12:52;;;;;;;8.77;3.78;;;22.10;80.80;;;;;;4248390;27;20062;-72
2021/08/04 08:14:55;;;;;;;7.13;3.88;;;22.30;81.10;;;;;;4248059;27;20055;-72
2021/08/04 08:17:00;;;;;;;9.07;4.40;;;22.40;80.60;;;;;;4248544;27;20493;-72
2021/08/04 08:19:03;;;;;;;5.63;4.07;;;22.30;79.30;;;;;;4248447;27;20051;-72
2021/08/04 08:21:06;;;;;;;7.22;4.18;;;22.30;78.30;;;;;;4248274;27;20061;-72
2021/08/04 08:23:10;;;;;;;11.10;3.97;;;22.40;79.60;;;;;;4248391;27;20057;-72
2021/08/04 08:25:14;;;;;;;7.63;3.75;;;22.50;78.60;;;;;;4248123;27;20487;-72
2021/08/04 08:27:18;;;;;;;6.60;3.97;;;22.60;78.60;;;;;;4248207;27;20603;-71
2021/08/04 08:29:21;;;;;;;8.38;3.90;;;22.60;79.90;;;;;;4248150;27;20051;-72
2021/08/04 08:31:24;;;;;;;12.52;3.83;;;22.60;78.90;;;;;;4248236;27;20433;-71
2021/08/04 08:33:28;;;;;;;6.60;3.65;;;22.70;77.30;;;;;;4247941;27;20061;-72
2021/08/04 08:35:31;;;;;;;6.50;3.70;;;22.60;75.50;;;;;;4247798;27;20055;-71
2021/08/04 08:37:34;;;;;;;9.32;4.70;;;22.60;78.30;;;;;;4248155;27;20062;-72
2021/08/04 08:39:37;;;;;;;6.95;3.35;;;22.60;75.60;;;;;;4248055;27;20138;-72
2021/08/04 08:41:43;;;;;;;8.23;3.78;;;22.60;75.20;;;;;;4247858;27;20403;-71
2021/08/04 08:43:47;;;;;;;7.07;3.70;;;22.70;75.50;;;;;;4247967;27;20047;-72
2021/08/04 08:45:52;;;;;;;8.25;4.07;;;22.70;76.20;;;;;;4247894;27;20055;-71
2021/08/04 08:47:56;;;;;;;8.93;3.53;;;22.70;75.00;;;;;;4247866;27;20057;-73
2021/08/04 08:50:05;;;;;;;6.60;3.88;;;22.90;76.00;;;;;;4247898;27;20055;-73
2021/08/04 08:52:09;;;;;;;7.07;3.15;;;22.90;76.20;;;;;;4247623;27;20438;-71
2021/08/04 08:54:12;;;;;;;5.70;3.53;;;23.00;74.30;;;;;;4247589;27;20054;-71
2021/08/04 08:56:18;;;;;;;7.60;3.60;;;23.00;76.30;;;;;;4247688;27;20384;-71
2021/08/04 08:58:21;;;;;;;8.65;3.50;;;23.00;76.00;;;;;;4247637;27;20093;-71
2021/08/04 09:00:24;;;;;;;5.53;3.50;;;23.10;74.00;;;;;;4247731;27;20069;-72
2021/08/04 09:02:28;;;;;;;6.00;3.50;;;23.20;75.90;;;;;;4247373;27;20075;-71
2021/08/04 09:04:31;;;;;;;5.93;3.55;;;23.20;75.90;;;;;;4247514;27;20055;-71
2021/08/04 09:06:48;;;;;;;5.68;3.78;;;23.20;74.70;;;;;;4247402;27;20055;-71
2021/08/04 09:08:51;;;;;;;8.02;3.40;;;23.10;71.80;;;;;;4247175;27;20138;-71
2021/08/04 09:10:55;;;;;;;6.68;3.22;;;23.20;72.60;;;;;;4247466;27;20051;-71
2021/08/04 09:12:59;;;;;;;7.00;3.03;;;23.40;74.60;;;;;;4247411;27;20048;-71
2021/08/04 09:15:03;;;;;;;6.07;3.10;;;23.40;72.40;;;;;;4247905;27;20051;-72
2021/08/04 09:17:08;;;;;;;5.97;2.90;;;23.20;69.40;;;;;;4247398;27;20529;-72
2021/08/04 09:19:22;;;;;;;4.20;3.03;;;23.40;70.20;;;;;;4247492;27;20055;-72
2021/08/04 09:21:25;;;;;;;6.95;3.10;;;23.60;70.30;;;;;;4247670;27;20525;-71
2021/08/04 09:23:29;;;;;;;10.98;3.38;;;23.70;70.30;;;;;;4247533;27;20066;-71
2021/08/04 09:25:32;;;;;;;8.30;2.75;;;23.70;69.20;;;;;;4247220;27;20533;-72
2021/08/04 09:27:48;;;;;;;4.07;2.80;;;23.80;69.60;;;;;;4247287;27;20051;-72
2021/08/04 09:30:00;;;;;;;7.18;2.75;;;23.80;67.50;;;;;;4246807;27;20055;-71
2021/08/04 09:32:04;;;;;;;5.43;3.10;;;23.80;67.30;;;;;;4247219;27;20061;-72
2021/08/04 09:34:26;;;;;;;4.50;2.95;;;23.90;65.60;;;;;;4246890;27;20055;-72
2021/08/04 09:36:29;;;;;;;5.50;3.42;;;23.90;66.40;;;;;;4247051;27;20051;-72
2021/08/04 09:38:33;;;;;;;5.85;3.60;;;24.00;68.50;;;;;;4246945;27;20055;-72
2021/08/04 09:40:36;;;;;;;9.18;3.55;;;24.20;68.90;;;;;;4247159;27;20055;-71
2021/08/04 09:42:49;;;;;;;9.05;3.67;;;24.30;67.60;;;;;;4246964;27;20082;-71
2021/08/04 09:44:53;;;;;;;7.97;3.35;;;24.30;68.40;;;;;;4247504;27;20073;-73
2021/08/04 09:47:11;;;;;;;8.68;3.80;;;24.30;66.20;;;;;;4247349;27;20631;-73
2021/08/04 09:49:16;;;;;;;7.05;3.42;;;24.50;66.50;;;;;;4247075;27;20104;-73
2021/08/04 09:51:21;;;;;;;5.75;3.50;;;24.70;68.50;;;;;;4246692;27;20062;-73
2021/08/04 09:53:27;;;;;;;5.88;3.42;;;24.90;67.60;;;;;;4248478;27;20129;-71
2021/08/04 09:55:31;;;;;;;6.07;3.30;;;24.80;67.80;;;;;;4252101;27;20058;-70
2021/08/04 09:57:39;;;;;;;6.93;3.47;;;24.70;65.10;;;;;;4254435;27;20513;-71
2021/08/04 10:00:04;;;;;;;7.65;3.22;;;24.60;67.10;;;;;;4246426;27;20128;-71
2021/08/04 10:02:27;;;;;;;6.75;3.60;;;24.60;67.70;;;;;;4246813;27;20051;-70
2021/08/04 10:04:31;;;;;;;7.40;3.30;;;24.60;65.00;;;;;;4251791;27;20051;-73
2021/08/04 10:06:36;;;;;;;7.00;3.47;;;24.40;64.60;;;;;;4246622;27;20070;-70
2021/08/04 10:08:39;;;;;;;5.05;3.28;;;24.20;64.40;;;;;;4248985;27;20053;-70
2021/08/04 10:10:45;;;;;;;6.30;3.25;;;24.20;64.60;;;;;;4256397;27;20103;-72
2021/08/04 10:12:48;;;;;;;7.93;4.00;;;24.30;66.30;;;;;;4260422;27;20123;-71
2021/08/04 10:14:52;;;;;;;5.35;3.60;;;24.30;65.60;;;;;;4232534;27;20411;-71
2021/08/04 10:16:55;;;;;;;9.35;3.53;;;24.40;67.30;;;;;;4264725;27;20057;-71
2021/08/04 10:19:00;;;;;;;7.78;3.45;;;24.40;65.70;;;;;;4268959;27;20055;-71
2021/08/04 10:21:08;;;;;;;11.73;3.60;;;24.40;67.20;;;;;;4262177;27;20057;-72
2021/08/04 10:23:14;;;;;;;6.05;3.30;;;24.40;66.50;;;;;;4254439;27;20422;-70
2021/08/04 10:25:18;;;;;;;5.32;3.08;;;24.40;65.60;;;;;;4257974;27;20054;-72
2021/08/04 10:27:23;;;;;;;6.13;3.23;;;24.30;65.40;;;;;;4266303;27;20447;-71
2021/08/04 10:29:26;;;;;;;6.15;3.58;;;24.40;65.50;;;;;;4251777;27;20487;-72
2021/08/04 10:31:30;;;;;;;5.88;3.67;;;24.50;64.60;;;;;;4245128;27;20059;-71
2021/08/04 10:33:34;;;;;;;4.55;3.10;;;24.70;65.80;;;;;;4266307;27;20061;-72
2021/08/04 10:35:40;;;;;;;6.40;3.45;;;24.70;65.30;;;;;;4263373;27;20055;-71
2021/08/04 10:37:44;;;;;;;5.90;3.08;;;24.70;62.80;;;;;;4252465;27;20058;-71
2021/08/04 10:39:49;;;;;;;5.10;2.92;;;24.60;62.70;;;;;;4261396;27;20061;-71
2021/08/04 10:42:00;;;;;;;6.70;3.70;;;24.60;63.50;;;;;;4263234;27;20051;-70
2021/08/04 10:44:06;;;;;;;6.47;3.50;;;24.30;62.60;;;;;;4262791;27;20054;-70